sensor_id;sensor_type;location;lat;lon;timestamp;temperature;humidity
82506;SHT30;72144;51.444;10.560;2023-10-19T00:00:33;8.37;72.07
82506;SHT30;72144;51.444;10.560;2023-10-19T00:03:04;8.36;72.04
82506;SHT30;72144;51.444;10.560;2023-10-19T00:05:34;8.38;72.11
82506;SHT30;72144;51.444;10.560;2023-10-19T00:08:00;8.38;72.14
82506;SHT30;72144;51.444;10.560;2023-10-19T00:10:30;8.41;72.10
82506;SHT30;72144;51.444;10.560;2023-10-19T00:13:00;8.38;72.18
82506;SHT30;72144;51.444;10.560;2023-10-19T00:15:30;8.36;72.20
82506;SHT30;72144;51.444;10.560;2023-10-19T00:17:57;8.38;72.26
82506;SHT30;72144;51.444;10.560;2023-10-19T00:20:24;8.37;72.29
82506;SHT30;72144;51.444;10.560;2023-10-19T00:23:11;8.36;72.27
82506;SHT30;72144;51.444;10.560;2023-10-19T00:25:41;8.37;72.32
82506;SHT30;72144;51.444;10.560;2023-10-19T00:28:07;8.36;72.34
82506;SHT30;72144;51.444;10.560;2023-10-19T00:30:33;8.33;72.38
82506;SHT30;72144;51.444;10.560;2023-10-19T00:33:02;8.36;72.40
82506;SHT30;72144;51.444;10.560;2023-10-19T00:35:40;8.36;72.45
82506;SHT30;72144;51.444;10.560;2023-10-19T00:38:13;8.37;72.47
82506;SHT30;72144;51.444;10.560;2023-10-19T00:40:57;8.36;72.49
82506;SHT30;72144;51.444;10.560;2023-10-19T00:43:32;8.34;72.52
82506;SHT30;72144;51.444;10.560;2023-10-19T00:46:00;8.36;72.53
82506;SHT30;72144;51.444;10.560;2023-10-19T00:48:34;8.36;72.56
82506;SHT30;72144;51.444;10.560;2023-10-19T00:51:00;8.34;72.57
82506;SHT30;72144;51.444;10.560;2023-10-19T00:53:34;8.34;72.64
82506;SHT30;72144;51.444;10.560;2023-10-19T00:56:02;8.36;72.65
82506;SHT30;72144;51.444;10.560;2023-10-19T00:58:30;8.34;72.67
82506;SHT30;72144;51.444;10.560;2023-10-19T01:00:56;8.34;72.74
82506;SHT30;72144;51.444;10.560;2023-10-19T01:03:25;8.34;72.78
82506;SHT30;72144;51.444;10.560;2023-10-19T01:05:57;8.33;72.81
82506;SHT30;72144;51.444;10.560;2023-10-19T01:08:23;8.33;72.83
82506;SHT30;72144;51.444;10.560;2023-10-19T01:10:51;8.34;72.84
82506;SHT30;72144;51.444;10.560;2023-10-19T01:13:18;8.34;72.86
82506;SHT30;72144;51.444;10.560;2023-10-19T01:15:44;8.31;72.86
82506;SHT30;72144;51.444;10.560;2023-10-19T01:18:14;8.30;72.85
82506;SHT30;72144;51.444;10.560;2023-10-19T01:20:40;8.30;72.92
82506;SHT30;72144;51.444;10.560;2023-10-19T01:23:20;8.31;72.97
82506;SHT30;72144;51.444;10.560;2023-10-19T01:25:57;8.30;72.99
82506;SHT30;72144;51.444;10.560;2023-10-19T01:28:36;8.30;73.10
82506;SHT30;72144;51.444;10.560;2023-10-19T01:31:20;8.31;73.04
82506;SHT30;72144;51.444;10.560;2023-10-19T01:33:55;8.29;73.10
82506;SHT30;72144;51.444;10.560;2023-10-19T01:36:22;8.30;73.13
82506;SHT30;72144;51.444;10.560;2023-10-19T01:38:48;8.27;73.14
82506;SHT30;72144;51.444;10.560;2023-10-19T01:41:14;8.29;73.17
82506;SHT30;72144;51.444;10.560;2023-10-19T01:43:44;8.27;73.20
82506;SHT30;72144;51.444;10.560;2023-10-19T01:46:12;8.29;73.21
82506;SHT30;72144;51.444;10.560;2023-10-19T01:48:39;8.26;73.29
82506;SHT30;72144;51.444;10.560;2023-10-19T01:51:07;8.26;73.26
82506;SHT30;72144;51.444;10.560;2023-10-19T01:53:40;8.26;73.27
82506;SHT30;72144;51.444;10.560;2023-10-19T01:56:08;8.26;73.30
82506;SHT30;72144;51.444;10.560;2023-10-19T01:58:39;8.24;73.37
82506;SHT30;72144;51.444;10.560;2023-10-19T02:01:05;8.26;73.40
82506;SHT30;72144;51.444;10.560;2023-10-19T02:03:37;8.24;73.41
82506;SHT30;72144;51.444;10.560;2023-10-19T02:06:07;8.24;73.44
82506;SHT30;72144;51.444;10.560;2023-10-19T02:08:45;8.23;73.46
82506;SHT30;72144;51.444;10.560;2023-10-19T02:11:10;8.23;73.51
82506;SHT30;72144;51.444;10.560;2023-10-19T02:13:45;8.23;73.61
82506;SHT30;72144;51.444;10.560;2023-10-19T02:16:18;8.26;73.64
82506;SHT30;72144;51.444;10.560;2023-10-19T02:18:48;8.23;73.62
82506;SHT30;72144;51.444;10.560;2023-10-19T02:21:14;8.23;73.66
82506;SHT30;72144;51.444;10.560;2023-10-19T02:23:40;8.24;73.71
82506;SHT30;72144;51.444;10.560;2023-10-19T02:26:09;8.21;73.74
82506;SHT30;72144;51.444;10.560;2023-10-19T02:28:38;8.23;73.74
82506;SHT30;72144;51.444;10.560;2023-10-19T02:31:05;8.21;73.77
82506;SHT30;72144;51.444;10.560;2023-10-19T02:33:40;8.20;73.77
82506;SHT30;72144;51.444;10.560;2023-10-19T02:36:06;8.21;73.81
82506;SHT30;72144;51.444;10.560;2023-10-19T02:38:39;8.20;73.84
82506;SHT30;72144;51.444;10.560;2023-10-19T02:41:04;8.23;73.89
82506;SHT30;72144;51.444;10.560;2023-10-19T02:43:30;8.21;73.90
82506;SHT30;72144;51.444;10.560;2023-10-19T02:45:58;8.21;73.91
82506;SHT30;72144;51.444;10.560;2023-10-19T02:48:25;8.21;73.93
82506;SHT30;72144;51.444;10.560;2023-10-19T02:50:50;8.21;73.94
82506;SHT30;72144;51.444;10.560;2023-10-19T02:53:15;8.20;73.96
82506;SHT30;72144;51.444;10.560;2023-10-19T02:55:44;8.19;74.03
82506;SHT30;72144;51.444;10.560;2023-10-19T02:58:09;8.20;74.11
82506;SHT30;72144;51.444;10.560;2023-10-19T03:05:51;8.20;74.11
82506;SHT30;72144;51.444;10.560;2023-10-19T03:08:17;8.19;74.11
82506;SHT30;72144;51.444;10.560;2023-10-19T03:10:44;8.17;74.14
82506;SHT30;72144;51.444;10.560;2023-10-19T03:13:10;8.17;74.14
82506;SHT30;72144;51.444;10.560;2023-10-19T03:15:38;8.19;74.13
82506;SHT30;72144;51.444;10.560;2023-10-19T03:18:08;8.19;74.17
82506;SHT30;72144;51.444;10.560;2023-10-19T03:20:33;8.17;74.17
82506;SHT30;72144;51.444;10.560;2023-10-19T03:22:59;8.21;74.18
82506;SHT30;72144;51.444;10.560;2023-10-19T03:25:27;8.19;74.21
82506;SHT30;72144;51.444;10.560;2023-10-19T03:28:21;8.17;74.16
82506;SHT30;72144;51.444;10.560;2023-10-19T03:30:50;8.19;74.22
82506;SHT30;72144;51.444;10.560;2023-10-19T03:33:16;8.17;74.24
82506;SHT30;72144;51.444;10.560;2023-10-19T03:35:43;8.19;74.24
82506;SHT30;72144;51.444;10.560;2023-10-19T03:38:08;8.17;74.23
82506;SHT30;72144;51.444;10.560;2023-10-19T03:40:41;8.19;74.19
82506;SHT30;72144;51.444;10.560;2023-10-19T03:43:12;8.19;74.25
82506;SHT30;72144;51.444;10.560;2023-10-19T03:45:44;8.19;74.25
82506;SHT30;72144;51.444;10.560;2023-10-19T03:48:14;8.17;74.31
82506;SHT30;72144;51.444;10.560;2023-10-19T03:50:41;8.17;74.33
82506;SHT30;72144;51.444;10.560;2023-10-19T03:53:07;8.17;74.37
82506;SHT30;72144;51.444;10.560;2023-10-19T03:55:37;8.19;74.41
82506;SHT30;72144;51.444;10.560;2023-10-19T03:58:04;8.20;74.44
82506;SHT30;72144;51.444;10.560;2023-10-19T04:00:30;8.21;74.44
82506;SHT30;72144;51.444;10.560;2023-10-19T04:02:58;8.17;74.46
82506;SHT30;72144;51.444;10.560;2023-10-19T04:05:24;8.19;74.50
82506;SHT30;72144;51.444;10.560;2023-10-19T04:07:51;8.19;74.49
82506;SHT30;72144;51.444;10.560;2023-10-19T04:10:20;8.17;74.48
82506;SHT30;72144;51.444;10.560;2023-10-19T04:12:55;8.21;74.48
82506;SHT30;72144;51.444;10.560;2023-10-19T04:15:20;8.20;74.57
82506;SHT30;72144;51.444;10.560;2023-10-19T04:17:47;8.19;74.52
82506;SHT30;72144;51.444;10.560;2023-10-19T04:20:18;8.19;74.55
82506;SHT30;72144;51.444;10.560;2023-10-19T04:22:48;8.19;74.59
82506;SHT30;72144;51.444;10.560;2023-10-19T04:25:15;8.17;74.55
82506;SHT30;72144;51.444;10.560;2023-10-19T04:27:45;8.19;74.59
82506;SHT30;72144;51.444;10.560;2023-10-19T04:30:12;8.21;74.54
82506;SHT30;72144;51.444;10.560;2023-10-19T04:32:45;8.20;74.58
82506;SHT30;72144;51.444;10.560;2023-10-19T04:35:14;8.20;74.62
82506;SHT30;72144;51.444;10.560;2023-10-19T04:37:46;8.21;74.58
82506;SHT30;72144;51.444;10.560;2023-10-19T04:40:12;8.21;74.64
82506;SHT30;72144;51.444;10.560;2023-10-19T04:42:38;8.20;74.66
82506;SHT30;72144;51.444;10.560;2023-10-19T04:45:04;8.20;74.71
82506;SHT30;72144;51.444;10.560;2023-10-19T04:47:31;8.20;74.72
82506;SHT30;72144;51.444;10.560;2023-10-19T04:50:00;8.21;74.73
82506;SHT30;72144;51.444;10.560;2023-10-19T04:52:25;8.20;74.74
82506;SHT30;72144;51.444;10.560;2023-10-19T04:54:51;8.21;74.76
82506;SHT30;72144;51.444;10.560;2023-10-19T04:57:16;8.21;74.80
82506;SHT30;72144;51.444;10.560;2023-10-19T04:59:42;8.20;74.80
82506;SHT30;72144;51.444;10.560;2023-10-19T05:02:10;8.21;74.81
82506;SHT30;72144;51.444;10.560;2023-10-19T05:04:36;8.19;74.80
82506;SHT30;72144;51.444;10.560;2023-10-19T05:07:01;8.21;74.83
82506;SHT30;72144;51.444;10.560;2023-10-19T05:09:29;8.21;74.88
82506;SHT30;72144;51.444;10.560;2023-10-19T05:11:54;8.20;74.90
82506;SHT30;72144;51.444;10.560;2023-10-19T05:14:20;8.23;74.96
82506;SHT30;72144;51.444;10.560;2023-10-19T05:16:45;8.23;74.94
82506;SHT30;72144;51.444;10.560;2023-10-19T05:19:11;8.21;74.99
82506;SHT30;72144;51.444;10.560;2023-10-19T05:21:36;8.21;74.97
82506;SHT30;72144;51.444;10.560;2023-10-19T05:24:02;8.20;74.99
82506;SHT30;72144;51.444;10.560;2023-10-19T05:26:27;8.20;74.96
82506;SHT30;72144;51.444;10.560;2023-10-19T05:28:53;8.23;74.98
82506;SHT30;72144;51.444;10.560;2023-10-19T05:31:19;8.23;74.97
82506;SHT30;72144;51.444;10.560;2023-10-19T05:33:45;8.23;74.99
82506;SHT30;72144;51.444;10.560;2023-10-19T05:36:13;8.23;74.97
82506;SHT30;72144;51.444;10.560;2023-10-19T05:38:39;8.21;75.00
82506;SHT30;72144;51.444;10.560;2023-10-19T05:41:05;8.21;75.02
82506;SHT30;72144;51.444;10.560;2023-10-19T05:43:30;8.23;75.03
82506;SHT30;72144;51.444;10.560;2023-10-19T05:45:56;8.21;75.06
82506;SHT30;72144;51.444;10.560;2023-10-19T05:48:22;8.23;75.06
82506;SHT30;72144;51.444;10.560;2023-10-19T05:50:49;8.23;75.08
82506;SHT30;72144;51.444;10.560;2023-10-19T05:53:14;8.23;75.13
82506;SHT30;72144;51.444;10.560;2023-10-19T05:55:44;8.23;75.13
82506;SHT30;72144;51.444;10.560;2023-10-19T05:58:10;8.20;75.12
82506;SHT30;72144;51.444;10.560;2023-10-19T06:00:35;8.23;75.12
82506;SHT30;72144;51.444;10.560;2023-10-19T06:03:00;8.20;75.16
82506;SHT30;72144;51.444;10.560;2023-10-19T06:05:26;8.23;75.17
82506;SHT30;72144;51.444;10.560;2023-10-19T06:07:51;8.23;75.22
82506;SHT30;72144;51.444;10.560;2023-10-19T06:10:20;8.23;75.28
82506;SHT30;72144;51.444;10.560;2023-10-19T06:12:51;8.23;75.30
82506;SHT30;72144;51.444;10.560;2023-10-19T06:15:18;8.21;75.26
82506;SHT30;72144;51.444;10.560;2023-10-19T06:17:46;8.20;75.31
82506;SHT30;72144;51.444;10.560;2023-10-19T06:20:13;8.24;75.32
82506;SHT30;72144;51.444;10.560;2023-10-19T06:23:07;8.24;75.32
82506;SHT30;72144;51.444;10.560;2023-10-19T06:25:33;8.23;75.36
82506;SHT30;72144;51.444;10.560;2023-10-19T06:28:01;8.26;75.38
82506;SHT30;72144;51.444;10.560;2023-10-19T06:30:27;8.23;75.40
82506;SHT30;72144;51.444;10.560;2023-10-19T06:32:58;8.21;75.46
82506;SHT30;72144;51.444;10.560;2023-10-19T06:35:28;8.24;75.44
82506;SHT30;72144;51.444;10.560;2023-10-19T06:37:54;8.24;75.43
82506;SHT30;72144;51.444;10.560;2023-10-19T06:40:20;8.24;75.48
82506;SHT30;72144;51.444;10.560;2023-10-19T06:42:47;8.23;75.42
82506;SHT30;72144;51.444;10.560;2023-10-19T06:45:14;8.24;75.47
82506;SHT30;72144;51.444;10.560;2023-10-19T06:47:44;8.24;75.51
82506;SHT30;72144;51.444;10.560;2023-10-19T06:50:11;8.24;75.50
82506;SHT30;72144;51.444;10.560;2023-10-19T06:52:37;8.26;75.52
82506;SHT30;72144;51.444;10.560;2023-10-19T06:55:04;8.26;75.51
82506;SHT30;72144;51.444;10.560;2023-10-19T06:57:33;8.27;75.54
82506;SHT30;72144;51.444;10.560;2023-10-19T07:00:01;8.29;75.58
82506;SHT30;72144;51.444;10.560;2023-10-19T07:02:36;8.31;75.58
82506;SHT30;72144;51.444;10.560;2023-10-19T07:05:02;8.31;75.57
82506;SHT30;72144;51.444;10.560;2023-10-19T07:07:28;8.27;75.61
82506;SHT30;72144;51.444;10.560;2023-10-19T07:09:53;8.31;75.61
82506;SHT30;72144;51.444;10.560;2023-10-19T07:12:18;8.29;75.63
82506;SHT30;72144;51.444;10.560;2023-10-19T07:14:44;8.30;75.66
82506;SHT30;72144;51.444;10.560;2023-10-19T07:17:09;8.31;75.65
82506;SHT30;72144;51.444;10.560;2023-10-19T07:19:35;8.33;75.66
82506;SHT30;72144;51.444;10.560;2023-10-19T07:22:01;8.33;75.71
82506;SHT30;72144;51.444;10.560;2023-10-19T07:24:29;8.30;75.72
82506;SHT30;72144;51.444;10.560;2023-10-19T07:26:54;8.36;75.71
82506;SHT30;72144;51.444;10.560;2023-10-19T07:29:30;8.34;75.78
82506;SHT30;72144;51.444;10.560;2023-10-19T07:31:56;8.38;75.81
82506;SHT30;72144;51.444;10.560;2023-10-19T07:34:23;8.37;75.88
82506;SHT30;72144;51.444;10.560;2023-10-19T07:36:53;8.40;75.86
82506;SHT30;72144;51.444;10.560;2023-10-19T07:39:19;8.38;75.97
82506;SHT30;72144;51.444;10.560;2023-10-19T07:41:45;8.41;76.03
82506;SHT30;72144;51.444;10.560;2023-10-19T07:44:12;8.44;76.02
82506;SHT30;72144;51.444;10.560;2023-10-19T07:46:37;8.44;76.02
82506;SHT30;72144;51.444;10.560;2023-10-19T07:49:03;8.44;76.12
82506;SHT30;72144;51.444;10.560;2023-10-19T07:51:29;8.47;76.13
82506;SHT30;72144;51.444;10.560;2023-10-19T07:53:55;8.48;76.17
82506;SHT30;72144;51.444;10.560;2023-10-19T07:56:21;8.51;76.18
82506;SHT30;72144;51.444;10.560;2023-10-19T07:58:47;8.49;76.19
82506;SHT30;72144;51.444;10.560;2023-10-19T08:01:12;8.51;76.20
82506;SHT30;72144;51.444;10.560;2023-10-19T08:03:38;8.52;76.24
82506;SHT30;72144;51.444;10.560;2023-10-19T08:06:03;8.54;76.25
82506;SHT30;72144;51.444;10.560;2023-10-19T08:08:30;8.57;76.29
82506;SHT30;72144;51.444;10.560;2023-10-19T08:10:59;8.58;76.30
82506;SHT30;72144;51.444;10.560;2023-10-19T08:13:24;8.59;76.35
82506;SHT30;72144;51.444;10.560;2023-10-19T08:15:52;8.62;76.38
82506;SHT30;72144;51.444;10.560;2023-10-19T08:18:18;8.65;76.35
82506;SHT30;72144;51.444;10.560;2023-10-19T08:20:44;8.69;76.30
82506;SHT30;72144;51.444;10.560;2023-10-19T08:23:11;8.68;76.29
82506;SHT30;72144;51.444;10.560;2023-10-19T08:25:39;8.73;76.36
82506;SHT30;72144;51.444;10.560;2023-10-19T08:28:05;8.73;76.29
82506;SHT30;72144;51.444;10.560;2023-10-19T08:30:31;8.76;76.22
82506;SHT30;72144;51.444;10.560;2023-10-19T08:32:59;8.79;76.18
82506;SHT30;72144;51.444;10.560;2023-10-19T08:35:24;8.80;76.19
82506;SHT30;72144;51.444;10.560;2023-10-19T08:37:54;8.85;76.09
82506;SHT30;72144;51.444;10.560;2023-10-19T08:40:20;8.86;76.07
82506;SHT30;72144;51.444;10.560;2023-10-19T08:42:47;8.87;76.08
82506;SHT30;72144;51.444;10.560;2023-10-19T08:45:14;8.90;76.11
82506;SHT30;72144;51.444;10.560;2023-10-19T08:47:59;8.93;76.47
82506;SHT30;72144;51.444;10.560;2023-10-19T08:50:32;8.96;75.97
82506;SHT30;72144;51.444;10.560;2023-10-19T08:53:00;8.97;75.99
82506;SHT30;72144;51.444;10.560;2023-10-19T08:55:28;9.02;75.95
82506;SHT30;72144;51.444;10.560;2023-10-19T08:57:53;9.04;75.90
82506;SHT30;72144;51.444;10.560;2023-10-19T09:00:19;9.07;75.90
82506;SHT30;72144;51.444;10.560;2023-10-19T09:02:49;9.09;75.89
82506;SHT30;72144;51.444;10.560;2023-10-19T09:05:15;9.09;75.89
82506;SHT30;72144;51.444;10.560;2023-10-19T09:07:53;9.14;75.86
82506;SHT30;72144;51.444;10.560;2023-10-19T09:10:27;9.17;75.87
82506;SHT30;72144;51.444;10.560;2023-10-19T09:13:06;9.19;76.11
82506;SHT30;72144;51.444;10.560;2023-10-19T09:15:38;9.20;75.89
82506;SHT30;72144;51.444;10.560;2023-10-19T09:20:43;9.27;75.81
82506;SHT30;72144;51.444;10.560;2023-10-19T09:23:24;9.27;75.79
82506;SHT30;72144;51.444;10.560;2023-10-19T09:25:52;9.32;75.79
82506;SHT30;72144;51.444;10.560;2023-10-19T09:28:18;9.31;75.84
82506;SHT30;72144;51.444;10.560;2023-10-19T09:30:44;9.35;75.86
82506;SHT30;72144;51.444;10.560;2023-10-19T09:33:13;9.35;75.89
82506;SHT30;72144;51.444;10.560;2023-10-19T09:35:40;9.42;75.86
82506;SHT30;72144;51.444;10.560;2023-10-19T09:38:09;9.39;75.85
82506;SHT30;72144;51.444;10.560;2023-10-19T09:40:34;9.41;75.86
82506;SHT30;72144;51.444;10.560;2023-10-19T09:43:04;9.45;75.89
82506;SHT30;72144;51.444;10.560;2023-10-19T09:45:37;9.48;75.88
82506;SHT30;72144;51.444;10.560;2023-10-19T09:48:07;9.51;75.85
82506;SHT30;72144;51.444;10.560;2023-10-19T09:50:34;9.54;75.86
82506;SHT30;72144;51.444;10.560;2023-10-19T09:53:00;9.52;75.93
82506;SHT30;72144;51.444;10.560;2023-10-19T09:55:34;9.55;75.87
82506;SHT30;72144;51.444;10.560;2023-10-19T09:58:18;9.58;75.92
82506;SHT30;72144;51.444;10.560;2023-10-19T10:00:48;9.58;75.91
82506;SHT30;72144;51.444;10.560;2023-10-19T10:06:07;9.62;75.80
82506;SHT30;72144;51.444;10.560;2023-10-19T10:08:35;9.63;75.89
82506;SHT30;72144;51.444;10.560;2023-10-19T10:11:16;9.69;76.24
82506;SHT30;72144;51.444;10.560;2023-10-19T10:13:43;9.66;75.84
82506;SHT30;72144;51.444;10.560;2023-10-19T10:16:12;9.71;75.95
82506;SHT30;72144;51.444;10.560;2023-10-19T10:18:40;9.73;75.98
82506;SHT30;72144;51.444;10.560;2023-10-19T10:23:40;9.76;76.11
82506;SHT30;72144;51.444;10.560;2023-10-19T10:26:06;9.79;75.93
82506;SHT30;72144;51.444;10.560;2023-10-19T10:28:33;9.82;75.98
82506;SHT30;72144;51.444;10.560;2023-10-19T10:31:14;9.83;76.30
82506;SHT30;72144;51.444;10.560;2023-10-19T10:33:45;9.87;76.01
82506;SHT30;72144;51.444;10.560;2023-10-19T10:36:12;9.89;75.96
82506;SHT30;72144;51.444;10.560;2023-10-19T10:38:37;9.91;75.95
82506;SHT30;72144;51.444;10.560;2023-10-19T10:41:03;9.90;75.95
82506;SHT30;72144;51.444;10.560;2023-10-19T10:43:30;9.94;75.95
82506;SHT30;72144;51.444;10.560;2023-10-19T10:46:05;9.97;76.29
82506;SHT30;72144;51.444;10.560;2023-10-19T10:48:32;9.97;75.95
82506;SHT30;72144;51.444;10.560;2023-10-19T10:50:58;10.00;75.93
82506;SHT30;72144;51.444;10.560;2023-10-19T10:53:24;10.04;75.95
82506;SHT30;72144;51.444;10.560;2023-10-19T10:55:53;10.06;75.96
82506;SHT30;72144;51.444;10.560;2023-10-19T10:58:19;10.07;75.95
82506;SHT30;72144;51.444;10.560;2023-10-19T11:00:45;10.10;75.96
82506;SHT30;72144;51.444;10.560;2023-10-19T11:03:17;10.10;75.94
82506;SHT30;72144;51.444;10.560;2023-10-19T11:05:42;10.13;75.93
82506;SHT30;72144;51.444;10.560;2023-10-19T11:08:15;10.14;76.08
82506;SHT30;72144;51.444;10.560;2023-10-19T11:10:47;10.17;75.93
82506;SHT30;72144;51.444;10.560;2023-10-19T11:13:18;10.20;76.06
82506;SHT30;72144;51.444;10.560;2023-10-19T11:15:51;10.20;76.05
82506;SHT30;72144;51.444;10.560;2023-10-19T11:18:31;10.24;76.25
82506;SHT30;72144;51.444;10.560;2023-10-19T11:20:58;10.25;75.91
82506;SHT30;72144;51.444;10.560;2023-10-19T11:23:54;10.28;76.61
82506;SHT30;72144;51.444;10.560;2023-10-19T11:26:21;10.28;75.93
82506;SHT30;72144;51.444;10.560;2023-10-19T11:28:47;10.33;75.98
82506;SHT30;72144;51.444;10.560;2023-10-19T11:31:22;10.33;75.96
82506;SHT30;72144;51.444;10.560;2023-10-19T11:33:48;10.35;76.01
82506;SHT30;72144;51.444;10.560;2023-10-19T11:36:15;10.35;76.04
82506;SHT30;72144;51.444;10.560;2023-10-19T11:38:42;10.40;76.02
82506;SHT30;72144;51.444;10.560;2023-10-19T11:41:09;10.41;76.03
82506;SHT30;72144;51.444;10.560;2023-10-19T11:43:35;10.42;76.01
82506;SHT30;72144;51.444;10.560;2023-10-19T11:46:01;10.42;76.01
82506;SHT30;72144;51.444;10.560;2023-10-19T11:48:30;10.48;75.99
82506;SHT30;72144;51.444;10.560;2023-10-19T11:50:56;10.52;75.98
82506;SHT30;72144;51.444;10.560;2023-10-19T11:53:21;10.53;75.95
82506;SHT30;72144;51.444;10.560;2023-10-19T11:55:46;10.56;75.94
82506;SHT30;72144;51.444;10.560;2023-10-19T11:58:14;10.61;75.95
82506;SHT30;72144;51.444;10.560;2023-10-19T12:00:40;10.63;75.97
82506;SHT30;72144;51.444;10.560;2023-10-19T12:03:09;10.65;75.98
82506;SHT30;72144;51.444;10.560;2023-10-19T12:05:35;10.68;75.99
82506;SHT30;72144;51.444;10.560;2023-10-19T12:08:02;10.72;76.04
82506;SHT30;72144;51.444;10.560;2023-10-19T12:10:28;10.76;76.00
82506;SHT30;72144;51.444;10.560;2023-10-19T12:13:04;10.75;76.00
82506;SHT30;72144;51.444;10.560;2023-10-19T12:15:31;10.79;75.95
82506;SHT30;72144;51.444;10.560;2023-10-19T12:17:56;10.81;75.95
82506;SHT30;72144;51.444;10.560;2023-10-19T12:20:22;10.81;75.98
82506;SHT30;72144;51.444;10.560;2023-10-19T12:22:48;10.86;75.95
82506;SHT30;72144;51.444;10.560;2023-10-19T12:25:14;10.84;76.01
82506;SHT30;72144;51.444;10.560;2023-10-19T12:27:40;10.92;75.99
82506;SHT30;72144;51.444;10.560;2023-10-19T12:30:06;10.95;75.99
82506;SHT30;72144;51.444;10.560;2023-10-19T12:32:42;10.95;75.94
82506;SHT30;72144;51.444;10.560;2023-10-19T12:35:08;10.97;75.96
82506;SHT30;72144;51.444;10.560;2023-10-19T12:37:37;10.99;75.97
82506;SHT30;72144;51.444;10.560;2023-10-19T12:40:14;11.01;75.95
82506;SHT30;72144;51.444;10.560;2023-10-19T12:42:52;11.01;75.91
82506;SHT30;72144;51.444;10.560;2023-10-19T12:45:21;11.04;75.95
82506;SHT30;72144;51.444;10.560;2023-10-19T12:47:47;11.04;75.95
82506;SHT30;72144;51.444;10.560;2023-10-19T12:50:13;11.07;75.93
82506;SHT30;72144;51.444;10.560;2023-10-19T12:52:39;11.08;75.94
82506;SHT30;72144;51.444;10.560;2023-10-19T12:55:06;11.10;76.00
82506;SHT30;72144;51.444;10.560;2023-10-19T12:57:32;11.13;75.99
82506;SHT30;72144;51.444;10.560;2023-10-19T12:59:58;11.14;75.96
82506;SHT30;72144;51.444;10.560;2023-10-19T13:02:31;11.14;75.95
82506;SHT30;72144;51.444;10.560;2023-10-19T13:04:57;11.18;75.98
82506;SHT30;72144;51.444;10.560;2023-10-19T13:07:24;11.18;75.99
82506;SHT30;72144;51.444;10.560;2023-10-19T13:09:51;11.20;76.01
82506;SHT30;72144;51.444;10.560;2023-10-19T13:12:17;11.21;76.00
82506;SHT30;72144;51.444;10.560;2023-10-19T13:14:48;11.23;75.86
82506;SHT30;72144;51.444;10.560;2023-10-19T13:17:14;11.25;75.69
82506;SHT30;72144;51.444;10.560;2023-10-19T13:19:39;11.27;75.87
82506;SHT30;72144;51.444;10.560;2023-10-19T13:22:05;11.31;75.90
82506;SHT30;72144;51.444;10.560;2023-10-19T13:24:33;11.30;75.99
82506;SHT30;72144;51.444;10.560;2023-10-19T13:27:06;11.32;75.97
82506;SHT30;72144;51.444;10.560;2023-10-19T13:29:31;11.35;75.98
82506;SHT30;72144;51.444;10.560;2023-10-19T13:32:02;11.36;75.91
82506;SHT30;72144;51.444;10.560;2023-10-19T13:34:28;11.38;76.01
82506;SHT30;72144;51.444;10.560;2023-10-19T13:36:53;11.43;76.01
82506;SHT30;72144;51.444;10.560;2023-10-19T13:39:21;11.43;75.97
82506;SHT30;72144;51.444;10.560;2023-10-19T13:41:50;11.43;76.02
82506;SHT30;72144;51.444;10.560;2023-10-19T13:44:18;11.48;75.99
82506;SHT30;72144;51.444;10.560;2023-10-19T13:46:46;11.48;76.01
82506;SHT30;72144;51.444;10.560;2023-10-19T13:49:11;11.55;76.01
82506;SHT30;72144;51.444;10.560;2023-10-19T13:51:37;11.57;75.97
82506;SHT30;72144;51.444;10.560;2023-10-19T13:54:04;11.59;76.06
82506;SHT30;72144;51.444;10.560;2023-10-19T13:56:30;11.61;76.03
82506;SHT30;72144;51.444;10.560;2023-10-19T13:58:55;11.65;75.99
82506;SHT30;72144;51.444;10.560;2023-10-19T14:01:21;11.66;76.01
82506;SHT30;72144;51.444;10.560;2023-10-19T14:03:54;11.67;76.01
82506;SHT30;72144;51.444;10.560;2023-10-19T14:06:22;11.70;76.00
82506;SHT30;72144;51.444;10.560;2023-10-19T14:08:49;11.70;76.04
82506;SHT30;72144;51.444;10.560;2023-10-19T14:11:15;11.75;76.07
82506;SHT30;72144;51.444;10.560;2023-10-19T14:13:40;11.76;76.05
82506;SHT30;72144;51.444;10.560;2023-10-19T14:16:08;11.80;76.10
82506;SHT30;72144;51.444;10.560;2023-10-19T14:18:34;11.77;76.10
82506;SHT30;72144;51.444;10.560;2023-10-19T14:20:59;11.80;76.08
82506;SHT30;72144;51.444;10.560;2023-10-19T14:23:25;11.79;76.10
82506;SHT30;72144;51.444;10.560;2023-10-19T14:25:52;11.83;76.11
82506;SHT30;72144;51.444;10.560;2023-10-19T14:28:18;11.84;76.12
82506;SHT30;72144;51.444;10.560;2023-10-19T14:30:44;11.83;76.08
82506;SHT30;72144;51.444;10.560;2023-10-19T14:33:10;11.83;76.12
82506;SHT30;72144;51.444;10.560;2023-10-19T14:35:39;11.87;76.13
82506;SHT30;72144;51.444;10.560;2023-10-19T14:38:07;11.87;76.11
82506;SHT30;72144;51.444;10.560;2023-10-19T14:40:34;11.87;76.14
82506;SHT30;72144;51.444;10.560;2023-10-19T14:43:00;11.87;76.14
82506;SHT30;72144;51.444;10.560;2023-10-19T14:45:27;11.91;76.14
82506;SHT30;72144;51.444;10.560;2023-10-19T14:47:56;11.89;76.12
82506;SHT30;72144;51.444;10.560;2023-10-19T14:50:29;11.91;76.17
82506;SHT30;72144;51.444;10.560;2023-10-19T14:52:55;11.90;76.20
82506;SHT30;72144;51.444;10.560;2023-10-19T14:55:21;11.91;76.14
82506;SHT30;72144;51.444;10.560;2023-10-19T14:57:49;11.94;76.21
82506;SHT30;72144;51.444;10.560;2023-10-19T15:00:17;11.90;76.21
82506;SHT30;72144;51.444;10.560;2023-10-19T15:02:56;11.93;76.23
82506;SHT30;72144;51.444;10.560;2023-10-19T15:05:27;11.94;76.34
82506;SHT30;72144;51.444;10.560;2023-10-19T15:07:53;11.93;76.25
82506;SHT30;72144;51.444;10.560;2023-10-19T15:10:20;11.91;76.35
82506;SHT30;72144;51.444;10.560;2023-10-19T15:12:46;11.93;76.39
82506;SHT30;72144;51.444;10.560;2023-10-19T15:15:12;11.94;76.49
82506;SHT30;72144;51.444;10.560;2023-10-19T15:17:45;11.94;76.60
82506;SHT30;72144;51.444;10.560;2023-10-19T15:20:12;11.93;76.51
82506;SHT30;72144;51.444;10.560;2023-10-19T15:22:40;11.94;76.59
82506;SHT30;72144;51.444;10.560;2023-10-19T15:25:06;11.94;76.56
82506;SHT30;72144;51.444;10.560;2023-10-19T15:27:36;11.95;76.62
82506;SHT30;72144;51.444;10.560;2023-10-19T15:30:03;11.94;76.64
82506;SHT30;72144;51.444;10.560;2023-10-19T15:32:31;11.93;76.63
82506;SHT30;72144;51.444;10.560;2023-10-19T15:34:56;11.95;76.67
82506;SHT30;72144;51.444;10.560;2023-10-19T15:37:22;11.95;76.71
82506;SHT30;72144;51.444;10.560;2023-10-19T15:39:49;11.97;76.70
82506;SHT30;72144;51.444;10.560;2023-10-19T15:42:14;11.95;76.68
82506;SHT30;72144;51.444;10.560;2023-10-19T15:44:40;11.97;76.70